Time;durP1;ratioP1;P1;durP2;ratioP2;P2;SDS_P1;SDS_P2;PMS_P1;PMS_P2;Temp;Humidity;BMP_temperature;BMP_pressure;BME280_temperature;BME280_humidity;BME280_pressure;Samples;Min_cycle;Max_cycle;Signal;HPM_P1;HPM_P2
2021/08/25 00:01:33;;;;;;;4.20;3.80;;;15.90;99.90;;;;;;6243911;22;20178;-55
2021/08/25 00:03:59;;;;;;;4.73;3.63;;;15.90;99.90;;;;;;6243999;23;20196;-59
2021/08/25 00:06:24;;;;;;;4.13;3.50;;;15.90;99.90;;;;;;6244150;23;20181;-61
2021/08/25 00:08:50;;;;;;;4.17;3.67;;;15.90;99.90;;;;;;6243671;23;20482;-61
2021/08/25 00:11:16;;;;;;;5.23;3.80;;;15.90;99.90;;;;;;6244144;22;20159;-60
2021/08/25 00:13:42;;;;;;;4.13;3.73;;;16.00;99.90;;;;;;6243841;23;20230;-59
2021/08/25 00:16:08;;;;;;;4.53;3.70;;;15.90;99.90;;;;;;6244059;23;20146;-57
2021/08/25 00:18:33;;;;;;;5.63;3.80;;;15.90;99.90;;;;;;6243810;23;20159;-61
2021/08/25 00:20:59;;;;;;;4.40;3.83;;;15.90;99.90;;;;;;6243813;23;20610;-59
2021/08/25 00:23:25;;;;;;;4.10;3.70;;;16.00;99.90;;;;;;6243641;22;20611;-60
2021/08/25 00:25:54;;;;;;;5.60;4.57;;;16.00;99.90;;;;;;6244095;23;20185;-60
2021/08/25 00:28:22;;;;;;;5.27;4.77;;;16.00;99.90;;;;;;6244144;23;20158;-60
2021/08/25 00:30:48;;;;;;;5.30;4.50;;;15.90;99.90;;;;;;6243423;23;20162;-60
2021/08/25 00:33:14;;;;;;;4.40;4.00;;;15.90;99.90;;;;;;6243699;22;20170;-61
2021/08/25 00:35:39;;;;;;;5.10;3.63;;;15.90;99.90;;;;;;6243534;23;20150;-61
2021/08/25 00:38:05;;;;;;;5.20;3.80;;;15.90;99.90;;;;;;6243311;23;20225;-57
2021/08/25 00:40:31;;;;;;;4.37;3.90;;;15.90;99.90;;;;;;6243268;23;20205;-60
2021/08/25 00:43:07;;;;;;;4.33;3.83;;;16.00;99.90;;;;;;6243397;22;20167;-61
2021/08/25 00:45:37;;;;;;;5.87;4.60;;;15.90;99.90;;;;;;6243594;23;20208;-59
2021/08/25 00:48:04;;;;;;;5.17;4.67;;;15.90;99.90;;;;;;6243637;23;20154;-58
2021/08/25 00:50:30;;;;;;;5.93;5.13;;;15.90;99.90;;;;;;6243187;23;20153;-60
2021/08/25 00:52:55;;;;;;;4.80;4.30;;;15.90;99.90;;;;;;6243850;22;20178;-61
2021/08/25 00:55:21;;;;;;;6.17;4.80;;;15.80;99.90;;;;;;6243576;23;20150;-58
2021/08/25 00:57:47;;;;;;;4.93;3.97;;;15.70;99.90;;;;;;6243646;23;20155;-61
2021/08/25 01:00:14;;;;;;;6.43;4.00;;;15.60;99.90;;;;;;6243046;23;20249;-61
2021/08/25 01:03:06;;;;;;;4.57;3.93;;;15.50;99.90;;;;;;6243425;22;20250;-58
2021/08/25 01:05:38;;;;;;;4.00;3.30;;;15.50;99.90;;;;;;6216970;23;20609;-61
2021/08/25 01:08:04;;;;;;;3.80;3.40;;;15.40;99.90;;;;;;6243847;23;20165;-60
2021/08/25 01:10:32;;;;;;;4.07;3.67;;;15.30;99.90;;;;;;6243018;23;20154;-59
2021/08/25 01:13:02;;;;;;;4.17;3.77;;;15.20;99.90;;;;;;6243348;22;20615;-61
2021/08/25 01:15:33;;;;;;;4.47;3.83;;;15.10;99.90;;;;;;6243564;23;20497;-60
2021/08/25 01:18:03;;;;;;;6.07;3.97;;;15.10;99.90;;;;;;6243339;23;20467;-56
2021/08/25 01:20:29;;;;;;;4.10;3.57;;;15.00;99.90;;;;;;6242926;23;20174;-60
2021/08/25 01:22:59;;;;;;;4.73;4.23;;;15.00;99.90;;;;;;6242983;22;20205;-61
2021/08/25 01:25:26;;;;;;;5.47;4.80;;;14.90;99.90;;;;;;6243334;23;20145;-60
2021/08/25 01:27:57;;;;;;;7.50;3.93;;;14.90;99.90;;;;;;6243124;23;20152;-61
2021/08/25 01:30:25;;;;;;;4.37;3.97;;;14.80;99.90;;;;;;6242931;23;20585;-56
2021/08/25 01:32:51;;;;;;;4.50;3.87;;;14.70;99.90;;;;;;6243168;22;20169;-61
2021/08/25 01:35:16;;;;;;;4.73;4.00;;;14.70;99.90;;;;;;6243549;23;20631;-57
2021/08/25 01:37:42;;;;;;;5.20;4.53;;;14.70;99.90;;;;;;6243214;23;20620;-57
2021/08/25 01:40:09;;;;;;;5.13;4.23;;;14.60;99.90;;;;;;6243067;23;20243;-56
2021/08/25 01:42:34;;;;;;;6.40;4.60;;;14.60;99.90;;;;;;6243022;22;20681;-56
2021/08/25 01:45:00;;;;;;;6.50;5.40;;;14.50;99.90;;;;;;6243266;23;20157;-59
2021/08/25 01:47:26;;;;;;;6.00;5.40;;;14.50;99.90;;;;;;6243090;23;20153;-54
2021/08/25 01:49:52;;;;;;;6.13;5.17;;;14.50;99.90;;;;;;6242801;23;20524;-61
2021/08/25 01:52:17;;;;;;;6.63;5.50;;;14.40;99.90;;;;;;6216115;23;20260;-61
2021/08/25 01:54:46;;;;;;;5.67;4.87;;;14.30;99.90;;;;;;6243052;23;20213;-59
2021/08/25 01:57:11;;;;;;;6.43;5.67;;;14.20;99.90;;;;;;6243012;23;20155;-60
2021/08/25 01:59:37;;;;;;;6.40;5.40;;;14.20;99.90;;;;;;6242963;23;20176;-59
2021/08/25 02:02:03;;;;;;;5.73;5.13;;;14.20;99.90;;;;;;6242961;22;20501;-61
2021/08/25 02:04:28;;;;;;;8.17;4.77;;;14.20;99.90;;;;;;6242871;23;20151;-59
2021/08/25 02:06:54;;;;;;;8.57;5.53;;;14.10;99.90;;;;;;6243020;23;20172;-61
2021/08/25 02:09:20;;;;;;;5.50;4.90;;;14.10;99.90;;;;;;6215706;23;20155;-61
2021/08/25 02:11:47;;;;;;;5.60;4.90;;;14.10;99.90;;;;;;6242807;22;20167;-60
2021/08/25 02:14:12;;;;;;;5.57;4.77;;;14.10;99.90;;;;;;6242672;23;20163;-61
2021/08/25 02:16:38;;;;;;;6.27;4.73;;;14.10;99.90;;;;;;6243106;23;20229;-60
2021/08/25 02:19:04;;;;;;;5.30;4.70;;;14.00;99.90;;;;;;6242636;23;20175;-61
2021/08/25 02:21:49;;;;;;;5.30;4.80;;;14.00;99.90;;;;;;6242642;22;20220;-59
2021/08/25 02:24:14;;;;;;;5.43;4.83;;;14.10;99.90;;;;;;6242968;23;20181;-61
2021/08/25 02:26:40;;;;;;;6.27;4.90;;;14.10;99.90;;;;;;6243041;23;20480;-60
2021/08/25 02:29:05;;;;;;;6.27;5.10;;;14.00;99.90;;;;;;6242607;23;20149;-61
2021/08/25 02:31:31;;;;;;;5.43;4.47;;;14.40;99.90;;;;;;6242966;22;20193;-60
2021/08/25 02:33:56;;;;;;;4.57;4.10;;;14.00;99.90;;;;;;6243304;23;20164;-60
2021/08/25 02:36:22;;;;;;;5.30;4.23;;;13.90;99.90;;;;;;6243143;23;20581;-58
2021/08/25 02:38:48;;;;;;;4.80;4.30;;;14.80;99.90;;;;;;6242685;23;20150;-59
2021/08/25 02:41:16;;;;;;;4.70;4.17;;;13.90;99.90;;;;;;6242807;22;20172;-59
2021/08/25 02:43:42;;;;;;;6.67;4.20;;;13.80;99.90;;;;;;6243056;23;20702;-60
2021/08/25 02:46:08;;;;;;;4.20;3.80;;;13.80;99.90;;;;;;6242923;23;20178;-60
2021/08/25 02:48:34;;;;;;;5.07;4.30;;;13.80;99.90;;;;;;6242813;23;20178;-59
2021/08/25 02:51:00;;;;;;;4.67;4.20;;;13.80;99.90;;;;;;6243115;23;20576;-60
2021/08/25 02:53:26;;;;;;;4.77;4.23;;;13.80;99.90;;;;;;6242772;22;20197;-60
2021/08/25 02:55:51;;;;;;;4.67;4.13;;;13.70;99.90;;;;;;6242710;23;20159;-58
2021/08/25 02:58:17;;;;;;;8.23;3.97;;;13.70;99.90;;;;;;6242809;23;20204;-60
2021/08/25 03:00:43;;;;;;;6.33;4.30;;;13.60;99.90;;;;;;6242416;23;20178;-59
2021/08/25 03:03:08;;;;;;;5.07;4.27;;;13.50;99.90;;;;;;6242722;22;20178;-61
2021/08/25 03:05:34;;;;;;;4.50;4.10;;;13.50;99.90;;;;;;6242764;23;20146;-59
2021/08/25 03:07:59;;;;;;;5.00;4.30;;;13.50;99.90;;;;;;6243156;23;20147;-59
2021/08/25 03:10:25;;;;;;;7.37;4.50;;;13.50;99.90;;;;;;6215593;23;20657;-61
2021/08/25 03:12:51;;;;;;;6.27;4.53;;;13.50;99.90;;;;;;6242704;22;20198;-59
2021/08/25 03:15:17;;;;;;;7.47;4.20;;;13.40;99.90;;;;;;6242814;23;20158;-61
2021/08/25 03:17:43;;;;;;;5.27;4.27;;;13.40;99.90;;;;;;6242779;23;20150;-61
2021/08/25 03:20:10;;;;;;;4.80;4.17;;;13.40;99.90;;;;;;6242351;23;20640;-61
2021/08/25 03:22:37;;;;;;;5.37;4.80;;;13.40;99.90;;;;;;6242520;22;20264;-60
2021/08/25 03:25:04;;;;;;;5.90;4.50;;;13.40;99.90;;;;;;6242674;23;20142;-60
2021/08/25 03:27:30;;;;;;;4.90;4.40;;;13.40;99.90;;;;;;6243743;23;20143;-61
2021/08/25 03:29:56;;;;;;;5.07;4.53;;;13.30;99.90;;;;;;6217384;23;20554;-58
2021/08/25 03:32:21;;;;;;;5.20;4.70;;;13.30;99.90;;;;;;6244357;22;20250;-60
2021/08/25 03:34:47;;;;;;;5.37;4.83;;;13.20;99.90;;;;;;6244740;23;20478;-59
2021/08/25 03:37:13;;;;;;;5.53;4.30;;;13.20;99.90;;;;;;6244181;23;20524;-60
2021/08/25 03:39:38;;;;;;;5.60;4.30;;;13.20;99.90;;;;;;6243923;23;20178;-59
2021/08/25 03:42:04;;;;;;;6.70;4.80;;;13.10;99.90;;;;;;6244109;22;20193;-59
2021/08/25 03:44:29;;;;;;;9.43;4.50;;;13.10;99.90;;;;;;6244389;23;20460;-61
2021/08/25 03:46:56;;;;;;;6.77;4.30;;;13.10;99.90;;;;;;6244233;23;20151;-60
2021/08/25 03:49:21;;;;;;;6.63;4.97;;;13.00;99.90;;;;;;6243982;23;20157;-59
2021/08/25 03:51:47;;;;;;;5.00;4.50;;;13.10;99.90;;;;;;6244275;22;20641;-60
2021/08/25 03:54:12;;;;;;;8.80;4.60;;;13.10;99.90;;;;;;6244224;23;20150;-61
2021/08/25 03:56:38;;;;;;;5.90;4.57;;;13.00;99.90;;;;;;6244187;23;20158;-61
2021/08/25 03:59:04;;;;;;;4.97;4.40;;;13.00;99.90;;;;;;6243721;23;20154;-61
2021/08/25 04:01:30;;;;;;;6.13;4.87;;;13.00;99.90;;;;;;6244000;22;20174;-61
2021/08/25 04:03:56;;;;;;;7.27;4.43;;;12.90;99.90;;;;;;6244138;23;20254;-59
2021/08/25 04:06:21;;;;;;;5.13;4.10;;;12.90;99.90;;;;;;6244043;23;20478;-58
2021/08/25 04:08:47;;;;;;;4.30;3.90;;;12.90;99.90;;;;;;6243589;23;20200;-61
2021/08/25 04:11:18;;;;;;;6.73;4.03;;;12.80;99.90;;;;;;6243923;22;20594;-59
2021/08/25 04:13:44;;;;;;;5.73;4.57;;;12.80;99.90;;;;;;6244285;23;20146;-59
2021/08/25 04:16:09;;;;;;;4.90;4.40;;;12.80;99.90;;;;;;6243892;23;20150;-60
2021/08/25 04:18:35;;;;;;;6.43;4.10;;;12.80;99.90;;;;;;6243555;23;20150;-60
2021/08/25 04:21:00;;;;;;;5.27;4.10;;;12.80;99.90;;;;;;6244112;23;20175;-60
2021/08/25 04:23:26;;;;;;;5.77;4.00;;;12.80;99.90;;;;;;6285311;22;20199;-57
2021/08/25 04:25:52;;;;;;;5.83;4.43;;;13.00;99.90;;;;;;6305214;22;20149;-58
2021/08/25 04:28:18;;;;;;;6.53;4.27;;;12.70;99.90;;;;;;6304984;22;20141;-59
2021/08/25 04:30:43;;;;;;;4.40;4.00;;;12.80;99.90;;;;;;6305154;22;20153;-54
2021/08/25 04:33:09;;;;;;;6.57;4.33;;;12.80;99.90;;;;;;6285607;22;20242;-55
2021/08/25 04:35:34;;;;;;;5.23;4.00;;;13.40;99.90;;;;;;6274065;22;20211;-54
2021/08/25 04:38:00;;;;;;;4.50;3.90;;;12.80;99.90;;;;;;6274122;22;20150;-58
2021/08/25 04:40:26;;;;;;;5.87;3.93;;;12.70;99.90;;;;;;6273668;22;20209;-54
2021/08/25 04:42:51;;;;;;;4.63;3.97;;;12.70;99.90;;;;;;6274120;22;20162;-52
2021/08/25 04:45:17;;;;;;;5.40;3.90;;;12.70;99.90;;;;;;6274209;22;20614;-54
2021/08/25 04:47:43;;;;;;;5.57;4.03;;;12.60;99.90;;;;;;6274647;22;20150;-59
2021/08/25 04:50:09;;;;;;;6.87;3.73;;;12.60;99.90;;;;;;6273711;22;20497;-55
2021/08/25 04:52:35;;;;;;;5.13;3.87;;;12.60;99.90;;;;;;6273986;22;20169;-52
2021/08/25 04:55:00;;;;;;;6.17;4.17;;;12.60;99.90;;;;;;6274011;22;20160;-55
2021/08/25 04:57:25;;;;;;;4.23;3.83;;;12.70;99.90;;;;;;6274034;22;20149;-51
2021/08/25 04:59:51;;;;;;;5.07;4.07;;;12.70;99.90;;;;;;6273585;22;20174;-55
2021/08/25 05:02:16;;;;;;;4.43;4.03;;;12.70;99.90;;;;;;6273790;22;20172;-53
2021/08/25 05:04:42;;;;;;;4.63;4.13;;;12.70;99.90;;;;;;6274070;22;20217;-56
2021/08/25 05:07:07;;;;;;;4.43;4.03;;;12.70;99.90;;;;;;6273985;22;20652;-52
2021/08/25 05:09:33;;;;;;;4.30;3.90;;;12.80;99.90;;;;;;6273674;22;20173;-51
2021/08/25 05:11:59;;;;;;;5.93;4.23;;;12.90;99.90;;;;;;6274118;22;20173;-51
2021/08/25 05:14:24;;;;;;;5.97;3.63;;;12.90;99.90;;;;;;6273454;22;20192;-57
2021/08/25 05:16:50;;;;;;;6.40;4.03;;;13.00;99.90;;;;;;6273767;22;20153;-52
2021/08/25 05:19:15;;;;;;;5.30;3.90;;;13.00;99.90;;;;;;6273444;22;20474;-58
2021/08/25 05:21:41;;;;;;;5.40;4.00;;;13.00;99.90;;;;;;6272672;22;20175;-58
2021/08/25 05:24:06;;;;;;;5.37;3.90;;;13.00;99.90;;;;;;6243124;23;20159;-51
2021/08/25 05:26:32;;;;;;;4.93;3.70;;;13.00;99.90;;;;;;6242893;23;20154;-54
2021/08/25 05:28:57;;;;;;;3.93;3.50;;;13.10;99.90;;;;;;6242373;23;20166;-52
2021/08/25 05:31:24;;;;;;;4.47;3.90;;;13.10;99.90;;;;;;6242978;23;20158;-51
2021/08/25 05:33:49;;;;;;;4.60;3.43;;;14.00;99.90;;;;;;6243150;22;20244;-57
2021/08/25 05:36:15;;;;;;;5.30;4.00;;;13.20;99.90;;;;;;6242800;23;20236;-55
2021/08/25 05:38:41;;;;;;;4.43;3.50;;;13.30;99.90;;;;;;6242927;23;20151;-58
2021/08/25 05:41:06;;;;;;;4.40;4.00;;;13.30;99.90;;;;;;6242881;23;20541;-53
2021/08/25 05:43:32;;;;;;;5.10;3.53;;;13.40;99.90;;;;;;6242902;22;20170;-58
2021/08/25 05:45:57;;;;;;;5.70;3.97;;;13.50;99.90;;;;;;6243000;23;20138;-59
2021/08/25 05:48:23;;;;;;;5.00;3.80;;;13.50;99.90;;;;;;6242779;23;20459;-51
2021/08/25 05:50:50;;;;;;;6.13;3.80;;;13.50;99.90;;;;;;6242598;23;20185;-52
2021/08/25 05:53:15;;;;;;;4.33;3.60;;;13.50;99.90;;;;;;6242665;22;20176;-54
2021/08/25 05:55:41;;;;;;;3.83;3.43;;;13.60;99.90;;;;;;6242697;23;20152;-58
2021/08/25 05:58:06;;;;;;;4.67;3.93;;;13.70;99.90;;;;;;6239718;23;20154;-54
2021/08/25 06:00:33;;;;;;;4.30;3.67;;;13.80;99.90;;;;;;6241553;23;20249;-54
2021/08/25 06:02:58;;;;;;;4.47;3.90;;;13.90;99.90;;;;;;6242408;22;20167;-55
2021/08/25 06:05:24;;;;;;;5.47;3.73;;;14.00;99.90;;;;;;6242941;23;20150;-55
2021/08/25 06:07:49;;;;;;;5.00;3.60;;;14.00;99.90;;;;;;6242883;23;20150;-58
2021/08/25 06:10:15;;;;;;;4.60;3.97;;;14.10;99.90;;;;;;6242191;23;20147;-50
2021/08/25 06:12:40;;;;;;;4.37;3.83;;;14.20;99.90;;;;;;6242768;22;20179;-55
2021/08/25 06:15:07;;;;;;;4.43;3.80;;;14.20;99.90;;;;;;6242510;23;20178;-58
2021/08/25 06:17:32;;;;;;;4.13;3.60;;;14.20;99.90;;;;;;6242808;23;20199;-50
2021/08/25 06:19:58;;;;;;;4.27;3.57;;;15.00;99.90;;;;;;6241930;23;20185;-54
2021/08/25 06:22:24;;;;;;;5.80;3.97;;;14.30;99.90;;;;;;6242282;22;20185;-52
2021/08/25 06:24:50;;;;;;;7.03;3.80;;;14.40;99.90;;;;;;6242172;23;20145;-50
2021/08/25 06:27:15;;;;;;;4.47;3.77;;;14.50;99.90;;;;;;6242557;23;20146;-55
2021/08/25 06:29:41;;;;;;;4.77;3.70;;;14.60;99.90;;;;;;6242651;23;20174;-58
2021/08/25 06:32:07;;;;;;;4.80;3.77;;;14.70;99.90;;;;;;6242224;22;20279;-57
2021/08/25 06:34:34;;;;;;;4.10;3.57;;;14.70;99.90;;;;;;6242803;23;20150;-54
2021/08/25 06:36:59;;;;;;;4.17;3.73;;;14.90;99.90;;;;;;6240932;23;20150;-50
2021/08/25 06:39:25;;;;;;;4.93;4.00;;;14.90;99.90;;;;;;6215068;23;20176;-53
2021/08/25 06:41:50;;;;;;;4.50;3.60;;;15.90;99.90;;;;;;6241784;22;20205;-49
2021/08/25 06:44:16;;;;;;;4.63;3.80;;;15.20;99.90;;;;;;6241577;23;20217;-51
2021/08/25 06:46:41;;;;;;;4.77;3.70;;;15.30;99.90;;;;;;6240959;23;20147;-50
2021/08/25 06:49:07;;;;;;;5.30;4.17;;;15.50;99.90;;;;;;6242250;23;20226;-56
2021/08/25 06:51:33;;;;;;;8.53;4.30;;;15.50;99.90;;;;;;6242704;23;20147;-50
2021/08/25 06:53:59;;;;;;;8.40;4.00;;;15.60;99.90;;;;;;6242565;22;20216;-49
2021/08/25 06:56:25;;;;;;;5.07;3.90;;;15.80;99.90;;;;;;6242538;23;20151;-55
2021/08/25 06:58:50;;;;;;;5.07;3.70;;;15.90;99.90;;;;;;6242500;23;20666;-50
2021/08/25 07:01:16;;;;;;;4.07;3.40;;;15.90;99.90;;;;;;6243828;23;20667;-53
2021/08/25 07:03:41;;;;;;;5.50;4.40;;;16.00;99.90;;;;;;6244593;22;20647;-55
2021/08/25 07:06:07;;;;;;;4.40;3.60;;;16.00;99.90;;;;;;6244982;23;20142;-50
2021/08/25 07:08:32;;;;;;;4.00;3.60;;;16.10;99.90;;;;;;6244423;23;20146;-57
2021/08/25 07:10:58;;;;;;;4.87;4.00;;;16.30;99.90;;;;;;6244981;23;20663;-51
2021/08/25 07:13:23;;;;;;;6.30;4.13;;;16.40;99.90;;;;;;6244789;22;20170;-54
2021/08/25 07:15:49;;;;;;;6.30;3.80;;;15.90;99.90;;;;;;6244977;23;20158;-50
2021/08/25 07:18:15;;;;;;;6.17;4.07;;;15.90;99.90;;;;;;6244995;23;20157;-54
2021/08/25 07:20:40;;;;;;;7.33;4.53;;;16.10;99.90;;;;;;6244773;23;20625;-50
2021/08/25 07:23:06;;;;;;;5.03;4.30;;;16.10;99.90;;;;;;6244570;22;20179;-54
2021/08/25 07:25:31;;;;;;;5.00;4.03;;;16.00;99.90;;;;;;6244795;23;20150;-51
2021/08/25 07:27:57;;;;;;;5.17;3.97;;;15.90;99.90;;;;;;6244754;23;20482;-52
2021/08/25 07:30:22;;;;;;;6.03;4.10;;;15.90;99.90;;;;;;6244564;23;20182;-49
2021/08/25 07:32:48;;;;;;;5.47;3.80;;;15.90;99.90;;;;;;6244793;22;20630;-53
2021/08/25 07:35:14;;;;;;;5.03;3.97;;;16.10;99.90;;;;;;6244987;23;20224;-56
2021/08/25 07:37:40;;;;;;;4.90;3.87;;;16.40;99.90;;;;;;6244669;23;20157;-56
2021/08/25 07:40:07;;;;;;;5.07;3.93;;;16.70;99.90;;;;;;6244479;23;20182;-51
2021/08/25 07:42:33;;;;;;;5.43;3.87;;;16.80;99.90;;;;;;6244579;22;20163;-53
2021/08/25 07:44:59;;;;;;;4.77;3.77;;;16.90;99.90;;;;;;6244633;23;20455;-50
2021/08/25 07:47:24;;;;;;;5.57;4.10;;;16.90;99.90;;;;;;6244482;23;20194;-49
2021/08/25 07:49:50;;;;;;;5.20;4.30;;;16.90;99.90;;;;;;6217243;23;20162;-54
2021/08/25 07:52:16;;;;;;;5.23;3.87;;;17.00;99.90;;;;;;6244735;22;20177;-56
2021/08/25 07:54:42;;;;;;;5.13;4.07;;;17.20;99.90;;;;;;6244856;23;20155;-52
2021/08/25 07:57:08;;;;;;;6.03;3.80;;;17.10;99.90;;;;;;6244467;23;20144;-49
2021/08/25 07:59:33;;;;;;;5.20;3.67;;;16.90;99.90;;;;;;6244064;23;20146;-50
2021/08/25 08:01:59;;;;;;;5.07;3.90;;;17.20;99.90;;;;;;6244300;22;20677;-52
2021/08/25 08:04:26;;;;;;;5.87;3.70;;;17.20;99.90;;;;;;6244404;23;20622;-51
2021/08/25 08:06:52;;;;;;;4.60;3.40;;;17.10;99.90;;;;;;6244200;23;20211;-52
2021/08/25 08:09:17;;;;;;;4.60;3.50;;;17.10;99.90;;;;;;6217336;23;20235;-52
2021/08/25 08:11:43;;;;;;;5.87;3.90;;;17.10;99.90;;;;;;6244028;22;20149;-50
2021/08/25 08:14:09;;;;;;;5.00;3.90;;;17.20;99.90;;;;;;6244239;23;20609;-52
2021/08/25 08:16:35;;;;;;;5.53;3.80;;;17.50;99.90;;;;;;6244211;23;20647;-55
2021/08/25 08:19:04;;;;;;;7.13;3.77;;;17.50;99.90;;;;;;6243760;23;20613;-52
2021/08/25 08:21:30;;;;;;;4.77;3.43;;;17.30;99.90;;;;;;6244222;23;20183;-50
2021/08/25 08:23:57;;;;;;;5.07;3.63;;;17.40;99.90;;;;;;6243834;22;20178;-52
2021/08/25 08:26:26;;;;;;;3.40;3.03;;;17.40;99.90;;;;;;6244307;23;20564;-56
2021/08/25 08:28:51;;;;;;;4.17;3.57;;;17.00;99.90;;;;;;6243729;23;20154;-49
2021/08/25 08:31:17;;;;;;;4.57;3.70;;;17.10;99.90;;;;;;6243670;23;20154;-57
2021/08/25 08:33:43;;;;;;;4.60;3.40;;;17.20;99.90;;;;;;6243871;22;20245;-57
2021/08/25 08:36:09;;;;;;;4.33;3.40;;;17.60;99.90;;;;;;6244185;23;20154;-56
2021/08/25 08:38:34;;;;;;;4.07;3.37;;;17.90;99.90;;;;;;6243672;23;20148;-51
2021/08/25 08:41:00;;;;;;;4.80;3.43;;;18.40;99.90;;;;;;6243496;23;20175;-51
2021/08/25 08:43:25;;;;;;;3.77;3.10;;;18.80;99.90;;;;;;6244006;22;20198;-53
2021/08/25 08:45:51;;;;;;;3.80;2.80;;;19.20;99.90;;;;;;6243639;23;20151;-56
2021/08/25 08:48:17;;;;;;;6.17;3.43;;;19.50;99.90;;;;;;6243554;23;20154;-54
2021/08/25 08:50:47;;;;;;;4.57;3.17;;;19.10;99.90;;;;;;6243275;23;20151;-50
2021/08/25 08:53:14;;;;;;;4.33;2.87;;;18.90;99.90;;;;;;6243975;22;20177;-50
2021/08/25 08:55:40;;;;;;;3.73;3.10;;;18.90;99.90;;;;;;6243950;23;20166;-56
2021/08/25 08:58:06;;;;;;;4.07;3.20;;;18.90;99.90;;;;;;6243586;23;20272;-52
2021/08/25 09:00:32;;;;;;;5.93;2.90;;;19.00;99.90;;;;;;6243102;23;20177;-55
2021/08/25 09:02:58;;;;;;;3.13;2.70;;;18.90;99.90;;;;;;6243441;22;20173;-50
2021/08/25 09:05:29;;;;;;;5.60;3.07;;;19.00;99.90;;;;;;6243568;23;20594;-54
2021/08/25 09:08:01;;;;;;;4.90;2.67;;;18.90;99.90;;;;;;6243847;23;20165;-59
2021/08/25 09:10:38;;;;;;;3.40;2.60;;;18.60;99.90;;;;;;6243223;23;20214;-55
2021/08/25 09:13:08;;;;;;;3.60;2.80;;;18.60;99.90;;;;;;6243326;22;20696;-54
2021/08/25 09:15:37;;;;;;;3.03;2.60;;;18.90;99.90;;;;;;6243795;23;20467;-56
2021/08/25 09:18:14;;;;;;;4.93;2.70;;;19.20;99.90;;;;;;6243768;23;20212;-50
2021/08/25 09:20:47;;;;;;;3.03;2.57;;;19.40;99.90;;;;;;6242954;23;20505;-52
2021/08/25 09:23:13;;;;;;;4.40;3.00;;;19.40;99.90;;;;;;6242998;22;20258;-51
2021/08/25 09:25:40;;;;;;;3.57;2.67;;;19.70;99.90;;;;;;6243029;23;20609;-50
2021/08/25 09:28:07;;;;;;;3.07;2.77;;;20.00;99.90;;;;;;6243436;23;20143;-59
2021/08/25 09:30:49;;;;;;;2.60;2.40;;;20.10;99.90;;;;;;6242935;23;20208;-49
2021/08/25 09:33:14;;;;;;;5.47;2.50;;;20.50;99.90;;;;;;6243507;22;20533;-52
2021/08/25 09:35:43;;;;;;;3.50;2.65;;;20.80;99.90;;;;;;6243205;23;20151;-53
2021/08/25 09:38:16;;;;;;;3.27;2.70;;;20.60;99.90;;;;;;6243480;23;20233;-51
2021/08/25 09:40:47;;;;;;;3.30;2.60;;;20.60;99.90;;;;;;6243183;23;20171;-50
2021/08/25 09:43:31;;;;;;;3.45;2.60;;;20.60;99.90;;;;;;6242999;22;20186;-55
2021/08/25 09:46:21;;;;;;;4.45;2.75;;;20.90;99.90;;;;;;6243359;23;20211;-59
2021/08/25 09:48:50;;;;;;;2.92;2.50;;;21.20;99.90;;;;;;6242928;23;20602;-50
2021/08/25 09:51:21;;;;;;;3.30;2.70;;;21.00;99.90;;;;;;6243064;23;20178;-50
2021/08/25 09:53:49;;;;;;;3.55;2.80;;;21.10;99.90;;;;;;6243298;22;20177;-58
2021/08/25 09:56:32;;;;;;;3.22;2.63;;;21.10;99.90;;;;;;6243109;23;20260;-51
2021/08/25 09:58:58;;;;;;;3.00;2.50;;;21.10;99.90;;;;;;6243030;23;20147;-53
2021/08/25 10:01:24;;;;;;;2.88;2.58;;;20.90;99.90;;;;;;6242713;23;20548;-55
2021/08/25 10:03:50;;;;;;;3.63;2.50;;;20.70;99.90;;;;;;6243082;22;20170;-54
2021/08/25 10:06:17;;;;;;;4.35;2.50;;;20.70;99.90;;;;;;6242967;23;20185;-55
2021/08/25 10:08:44;;;;;;;3.15;2.42;;;21.00;99.90;;;;;;6243027;23;20232;-52
2021/08/25 10:11:11;;;;;;;2.88;2.47;;;21.40;99.90;;;;;;6215896;23;20161;-51
2021/08/25 10:13:37;;;;;;;3.28;2.35;;;21.70;99.90;;;;;;6243190;22;20260;-56
2021/08/25 10:16:03;;;;;;;4.28;2.53;;;22.10;99.90;;;;;;6242854;23;20174;-52
2021/08/25 10:18:42;;;;;;;2.75;2.40;;;22.10;99.90;;;;;;6242669;23;20767;-56
2021/08/25 10:21:33;;;;;;;3.30;2.72;;;22.30;99.90;;;;;;6242842;23;20185;-51
2021/08/25 10:24:00;;;;;;;2.85;2.55;;;22.60;99.90;;;;;;6285442;22;20535;-60
2021/08/25 10:26:26;;;;;;;3.05;2.53;;;22.70;99.90;;;;;;6304197;22;20153;-59
2021/08/25 10:29:09;;;;;;;3.03;2.70;;;22.50;99.40;;;;;;6304017;22;20141;-60
2021/08/25 10:31:50;;;;;;;3.15;2.50;;;22.50;99.90;;;;;;6304427;22;20536;-61
2021/08/25 10:34:24;;;;;;;3.00;2.70;;;22.30;99.10;;;;;;6248838;22;20494;-61
2021/08/25 10:36:50;;;;;;;2.80;2.47;;;22.60;99.90;;;;;;6275462;22;20142;-61
2021/08/25 10:39:36;;;;;;;2.60;2.40;;;22.80;99.90;;;;;;6248200;22;20268;-61
2021/08/25 10:42:03;;;;;;;3.58;2.65;;;22.60;99.90;;;;;;6275477;22;20311;-61
2021/08/25 10:44:38;;;;;;;2.70;2.50;;;22.30;99.30;;;;;;6275275;22;20169;-59
2021/08/25 10:47:14;;;;;;;3.00;2.63;;;22.30;99.90;;;;;;6275652;22;20149;-61
2021/08/25 10:49:42;;;;;;;3.42;2.58;;;22.70;99.90;;;;;;6275136;22;20512;-61
2021/08/25 10:52:18;;;;;;;2.75;2.45;;;23.20;99.90;;;;;;6275202;22;20644;-61
2021/08/25 10:54:49;;;;;;;2.63;2.42;;;23.40;98.70;;;;;;6275784;22;20145;-60
2021/08/25 10:57:16;;;;;;;2.78;2.42;;;23.50;99.20;;;;;;6275167;22;20188;-62
2021/08/25 10:59:43;;;;;;;3.05;2.55;;;23.50;99.00;;;;;;6274964;22;20200;-61
2021/08/25 11:02:09;;;;;;;3.33;2.60;;;23.80;99.40;;;;;;6275377;22;20153;-62
2021/08/25 11:04:34;;;;;;;4.05;2.83;;;24.00;98.90;;;;;;6275348;22;20150;-61
2021/08/25 11:07:04;;;;;;;6.03;2.67;;;23.60;99.90;;;;;;6275156;22;20485;-59
2021/08/25 11:09:50;;;;;;;3.53;2.50;;;23.60;99.90;;;;;;6274900;22;20597;-61
2021/08/25 11:12:16;;;;;;;3.38;2.67;;;24.10;99.90;;;;;;6275531;22;20138;-60
2021/08/25 11:14:53;;;;;;;4.82;2.67;;;24.60;99.90;;;;;;6275434;22;20184;-61
2021/08/25 11:17:27;;;;;;;3.03;2.60;;;24.20;98.60;;;;;;6275211;22;20156;-62
2021/08/25 11:19:53;;;;;;;3.55;2.72;;;23.60;99.90;;;;;;6274661;22;20172;-60
2021/08/25 11:22:23;;;;;;;3.97;3.00;;;24.00;99.90;;;;;;6274677;22;20516;-62
2021/08/25 11:24:56;;;;;;;2.90;2.60;;;24.40;99.90;;;;;;6244563;23;20131;-62
2021/08/25 11:27:23;;;;;;;2.97;2.67;;;24.70;99.90;;;;;;6244380;23;20131;-59
2021/08/25 11:30:13;;;;;;;3.13;2.80;;;24.60;98.80;;;;;;6244541;23;20147;-60
2021/08/25 11:33:15;;;;;;;2.95;2.65;;;24.00;99.20;;;;;;6226274;22;20174;-61
2021/08/25 11:35:44;;;;;;;3.55;2.65;;;24.10;99.90;;;;;;6121783;23;20160;-59
2021/08/25 11:38:18;;;;;;;3.17;2.78;;;24.20;99.70;;;;;;6121552;23;20157;-62
2021/08/25 11:40:46;;;;;;;3.08;2.70;;;24.40;99.90;;;;;;6121435;23;20165;-61
2021/08/25 11:43:20;;;;;;;2.72;2.53;;;24.60;99.90;;;;;;6121437;23;20180;-59
2021/08/25 11:45:51;;;;;;;3.25;2.58;;;25.00;99.90;;;;;;6121813;23;20702;-61
2021/08/25 11:48:23;;;;;;;3.92;2.67;;;25.20;98.90;;;;;;6121066;23;20675;-60
2021/08/25 11:50:49;;;;;;;4.13;2.50;;;25.20;95.30;;;;;;6121656;23;20165;-62
2021/08/25 11:53:15;;;;;;;3.72;2.67;;;25.40;97.20;;;;;;6121328;23;20502;-62
2021/08/25 11:55:42;;;;;;;3.30;2.33;;;26.00;96.70;;;;;;6121629;23;20504;-62
2021/08/25 11:58:24;;;;;;;3.50;2.85;;;26.20;95.90;;;;;;6121424;23;20162;-60
2021/08/25 12:00:50;;;;;;;5.97;2.85;;;26.40;95.60;;;;;;6121547;23;20192;-61
2021/08/25 12:03:16;;;;;;;3.00;2.40;;;26.70;93.70;;;;;;6121337;23;20217;-61
2021/08/25 12:05:55;;;;;;;3.35;2.70;;;26.90;94.50;;;;;;6121595;23;20157;-59
2021/08/25 12:08:21;;;;;;;2.88;2.58;;;27.20;92.00;;;;;;6121571;23;20249;-62
2021/08/25 12:11:04;;;;;;;2.95;2.42;;;27.60;91.90;;;;;;6240821;23;20157;-61
2021/08/25 12:13:33;;;;;;;3.95;2.42;;;27.90;92.20;;;;;;6244116;22;20246;-62
2021/08/25 12:15:59;;;;;;;2.97;2.30;;;28.50;93.90;;;;;;6243819;23;20155;-60
2021/08/25 12:18:27;;;;;;;2.53;2.33;;;29.30;92.90;;;;;;6243821;23;20212;-62
2021/08/25 12:20:55;;;;;;;4.00;2.55;;;29.80;92.00;;;;;;6244164;23;20183;-62
2021/08/25 12:23:25;;;;;;;2.85;2.63;;;30.90;91.50;;;;;;6243878;22;20183;-62
2021/08/25 12:25:56;;;;;;;2.60;2.40;;;32.40;91.10;;;;;;6243972;23;20142;-63
2021/08/25 12:28:37;;;;;;;2.58;2.38;;;33.40;88.30;;;;;;6243926;23;20135;-63
2021/08/25 12:31:11;;;;;;;2.40;2.20;;;33.80;79.20;;;;;;6244298;23;20635;-61
2021/08/25 12:33:37;;;;;;;3.45;2.70;;;32.90;82.40;;;;;;6244221;22;20174;-64
2021/08/25 12:36:25;;;;;;;2.70;2.15;;;31.70;81.60;;;;;;6243813;23;20615;-62
2021/08/25 12:39:12;;;;;;;3.30;2.70;;;31.50;83.70;;;;;;6243708;23;20139;-63
2021/08/25 12:41:39;;;;;;;2.67;2.47;;;32.10;83.60;;;;;;6243883;23;20479;-63
2021/08/25 12:44:05;;;;;;;2.80;2.60;;;32.70;74.20;;;;;;6243897;22;20170;-60
2021/08/25 12:46:47;;;;;;;3.95;2.78;;;32.30;73.60;;;;;;6243847;23;20627;-62
2021/08/25 12:49:12;;;;;;;4.13;2.40;;;32.10;78.10;;;;;;6243521;23;20173;-62
2021/08/25 12:51:38;;;;;;;2.72;2.53;;;32.70;80.60;;;;;;6243865;23;20481;-62